Time;durP1;ratioP1;P1;durP2;ratioP2;P2;SDS_P1;SDS_P2;PMS_P1;PMS_P2;Temp;Humidity;BMP_temperature;BMP_pressure;BME280_temperature;BME280_humidity;BME280_pressure;Samples;Min_cycle;Max_cycle;Signal;HPM_P1;HPM_P2
2023/06/21 00:08:57;;;;;;;16.17;15.27;;;;;;;21.59;100.00;99473.56;10384531;28;20058;-70
2023/06/21 00:13:59;;;;;;;16.42;15.50;;;;;;;21.50;100.00;99472.50;10503901;28;20072;-69
2023/06/21 00:19:01;;;;;;;16.92;15.80;;;;;;;21.66;100.00;99480.06;10487062;28;20094;-69
2023/06/21 00:24:02;;;;;;;16.80;15.80;;;;;;;21.75;100.00;99475.75;10485214;28;20110;-69
2023/06/21 00:29:04;;;;;;;16.77;15.75;;;;;;;21.74;100.00;99472.25;10502841;28;20059;-69
2023/06/21 00:34:07;;;;;;;16.17;15.18;;;;;;;21.60;100.00;99475.25;10485017;28;20058;-70
2023/06/21 00:39:10;;;;;;;17.00;15.75;;;;;;;21.71;100.00;99471.66;10485611;28;20051;-69
2023/06/21 00:44:12;;;;;;;15.23;14.23;;;;;;;21.69;100.00;99490.50;10484959;28;20407;-70
2023/06/21 00:49:14;;;;;;;15.18;14.18;;;;;;;21.73;100.00;99509.81;10502906;28;20037;-70
2023/06/21 00:54:17;;;;;;;17.88;16.35;;;;;;;21.67;100.00;99509.34;10484383;28;20045;-70
2023/06/21 00:59:21;;;;;;;16.50;15.50;;;;;;;21.83;100.00;99506.22;10485269;28;20045;-70
2023/06/21 01:04:24;;;;;;;16.30;15.35;;;;;;;22.09;100.00;99530.72;10483925;28;20192;-70
2023/06/21 01:09:56;;;;;;;16.83;15.73;;;;;;;21.97;100.00;99563.88;10501700;28;20512;-71
2023/06/21 01:15:23;;;;;;;13.23;12.43;;;;;;;22.22;94.19;99578.66;10484379;28;20074;-70
2023/06/21 01:20:29;;;;;;;11.15;10.02;;;;;;;23.29;79.73;99592.38;10484872;28;20073;-68
2023/06/21 01:25:50;;;;;;;8.82;7.93;;;;;;;23.94;74.96;99604.19;10482955;28;20127;-70
2023/06/21 01:30:57;;;;;;;8.18;7.43;;;;;;;24.00;76.06;99609.00;10482675;28;20052;-70
2023/06/21 01:36:03;;;;;;;8.40;7.60;;;;;;;23.77;78.36;99604.94;10482475;28;20098;-69
2023/06/21 01:41:10;;;;;;;7.78;7.18;;;;;;;23.63;80.02;99600.81;10482581;28;20097;-69
2023/06/21 01:46:13;;;;;;;8.70;7.93;;;;;;;23.42;82.59;99604.53;10484024;28;20044;-69
2023/06/21 01:51:17;;;;;;;7.78;7.20;;;;;;;23.26;83.00;99608.75;10482099;28;20052;-68
2023/06/21 01:56:21;;;;;;;13.48;7.43;;;;;;;23.26;83.12;99606.06;10481810;28;20520;-69
2023/06/21 02:01:26;;;;;;;7.47;6.97;;;;;;;23.20;83.33;99614.66;10481851;28;20052;-69
2023/06/21 02:06:32;;;;;;;7.32;6.72;;;;;;;23.15;82.47;99599.84;10501269;28;20211;-69
2023/06/21 02:11:35;;;;;;;6.97;6.38;;;;;;;23.09;83.39;99603.06;10481957;28;20454;-69
2023/06/21 02:16:36;;;;;;;7.78;7.18;;;;;;;22.98;84.25;99600.53;10480212;28;20047;-69
2023/06/21 02:21:38;;;;;;;6.50;6.00;;;;;;;22.96;82.63;99586.41;10498730;28;20043;-69
2023/06/21 02:26:40;;;;;;;6.30;5.68;;;;;;;22.73;85.04;99580.41;10481223;28;20044;-69
2023/06/21 02:31:45;;;;;;;6.03;5.43;;;;;;;22.34;88.35;99592.81;10499630;28;20493;-69
2023/06/21 02:36:53;;;;;;;7.18;6.60;;;;;;;22.09;92.35;99596.75;10480424;28;20402;-69
2023/06/21 02:41:55;;;;;;;7.45;6.85;;;;;;;22.18;93.72;99598.69;10480635;28;20575;-69
2023/06/21 02:46:58;;;;;;;7.55;6.90;;;;;;;21.97;96.84;99606.69;10498690;28;20044;-70
2023/06/21 02:52:00;;;;;;;7.95;7.25;;;;;;;22.02;96.65;99633.06;10498770;28;20052;-70
2023/06/21 02:57:03;;;;;;;6.95;6.28;;;;;;;22.12;92.86;99631.31;10480020;28;20041;-69
2023/06/21 03:02:06;;;;;;;6.50;5.88;;;;;;;22.03;93.88;99638.28;10479912;28;20106;-69
2023/06/21 03:07:09;;;;;;;6.18;5.68;;;;;;;22.06;92.96;99634.50;10479402;28;20055;-69
2023/06/21 03:12:11;;;;;;;5.85;5.35;;;;;;;21.74;97.55;99645.28;10498279;28;20047;-69
2023/06/21 03:17:13;;;;;;;6.72;5.65;;;;;;;21.60;98.88;99638.38;10479827;28;20044;-69
2023/06/21 03:22:15;;;;;;;5.80;5.15;;;;;;;21.63;99.06;99627.44;10479683;28;20041;-69
2023/06/21 03:27:17;;;;;;;6.40;5.90;;;;;;;21.49;99.66;99639.28;10479407;28;20048;-69
2023/06/21 03:32:19;;;;;;;6.57;5.97;;;;;;;21.57;99.45;99639.50;10505025;28;20426;-69
2023/06/21 03:37:21;;;;;;;6.68;5.90;;;;;;;21.49;99.25;99639.28;10504818;28;20045;-69
2023/06/21 03:42:23;;;;;;;5.32;5.03;;;;;;;21.45;98.39;99651.22;10505721;28;20037;-69
2023/06/21 03:47:25;;;;;;;6.15;4.63;;;;;;;21.38;98.49;99666.06;10487758;28;20102;-69
2023/06/21 03:52:27;;;;;;;5.70;5.30;;;;;;;21.63;97.53;99673.75;10469386;28;20049;-69
2023/06/21 03:57:29;;;;;;;5.85;5.38;;;;;;;21.47;98.47;99670.69;10505155;28;20410;-69
2023/06/21 04:02:31;;;;;;;6.00;5.60;;;;;;;21.44;99.06;99681.63;10504047;28;20044;-69
2023/06/21 04:07:34;;;;;;;7.35;6.65;;;;;;;21.53;99.34;99693.38;10485495;28;20079;-69
2023/06/21 04:12:37;;;;;;;6.38;5.88;;;;;;;21.67;99.63;99693.06;10503716;28;20128;-69
2023/06/21 04:17:39;;;;;;;6.65;6.07;;;;;;;21.82;99.25;99697.13;10486141;28;20059;-69
2023/06/21 04:22:42;;;;;;;6.57;6.07;;;;;;;21.72;98.94;99700.72;10503861;28;20052;-70
2023/06/21 04:27:47;;;;;;;7.35;6.60;;;;;;;21.74;98.16;99704.13;10486129;28;20040;-70
2023/06/21 04:32:51;;;;;;;4.45;3.80;;;;;;;21.72;94.14;99700.72;10485606;28;20045;-69
2023/06/21 04:37:53;;;;;;;3.90;3.50;;;;;;;21.98;92.27;99715.44;10485785;28;20053;-71
2023/06/21 04:42:55;;;;;;;5.57;2.30;;;;;;;22.04;87.52;99706.03;10502060;28;20047;-70
2023/06/21 04:47:57;;;;;;;2.47;2.10;;;;;;;22.36;83.34;99717.56;10502912;28;20041;-70
2023/06/21 04:53:01;;;;;;;2.13;1.83;;;;;;;22.43;81.47;99715.19;10503381;28;20041;-70
2023/06/21 04:58:05;;;;;;;2.65;2.10;;;;;;;22.79;76.41;99729.91;10485755;28;20559;-72
2023/06/21 05:03:07;;;;;;;3.42;2.00;;;;;;;22.95;78.07;99721.41;10516865;22;20031;-69
2023/06/21 05:08:09;;;;;;;4.07;2.75;;;;;;;23.24;74.04;99728.69;10482284;28;20131;-69
2023/06/21 05:13:11;;;;;;;3.42;2.50;;;;;;;23.49;74.08;99724.66;10499238;28;20076;-69
2023/06/21 05:18:12;;;;;;;4.35;3.60;;;;;;;23.91;73.17;99731.50;10500578;28;20044;-69
2023/06/21 05:23:14;;;;;;;5.00;3.25;;;;;;;24.26;69.33;99731.88;10499898;28;20047;-69
2023/06/21 05:28:16;;;;;;;5.15;3.50;;;;;;;24.85;65.81;99745.06;10499989;28;20041;-69
2023/06/21 05:33:18;;;;;;;5.55;3.38;;;;;;;25.10;66.90;99740.91;10481550;28;20040;-70
2023/06/21 05:38:20;;;;;;;13.35;12.20;;;;;;;25.64;63.53;99758.00;10499320;28;20131;-70
2023/06/21 05:43:21;;;;;;;6.18;3.63;;;;;;;25.87;61.17;99749.50;10498859;28;20437;-69
2023/06/21 05:48:23;;;;;;;4.90;3.40;;;;;;;26.28;59.75;99748.00;10498094;28;20046;-69
2023/06/21 05:53:25;;;;;;;4.88;2.90;;;;;;;26.35;59.88;99756.34;10498757;28;20045;-69
2023/06/21 05:58:26;;;;;;;5.35;3.42;;;;;;;26.43;60.08;99761.78;10499305;28;20045;-68
2023/06/21 06:03:28;;;;;;;8.52;4.18;;;;;;;26.61;58.79;99773.41;10500054;28;20405;-69
2023/06/21 06:08:30;;;;;;;5.72;3.25;;;;;;;27.05;59.39;99778.72;10498599;28;20422;-69
2023/06/21 06:13:32;;;;;;;5.18;3.42;;;;;;;27.24;57.66;99779.50;10480901;28;20041;-69
2023/06/21 06:18:33;;;;;;;3.70;3.38;;;;;;;27.29;57.50;99783.41;10498974;28;20448;-69
2023/06/21 06:23:35;;;;;;;4.82;3.65;;;;;;;27.53;55.27;99779.94;10498229;28;20048;-69
2023/06/21 06:28:37;;;;;;;6.72;3.83;;;;;;;27.35;57.08;99790.00;10498723;28;20044;-70
2023/06/21 06:33:39;;;;;;;9.45;3.90;;;;;;;27.81;56.86;99810.28;10497814;28;20037;-70
2023/06/21 06:38:41;;;;;;;9.75;3.80;;;;;;;27.71;55.56;99814.91;10480080;28;20071;-70
2023/06/21 06:43:43;;;;;;;4.45;3.85;;;;;;;27.45;55.91;99823.13;10498492;28;20393;-71
2023/06/21 06:48:45;;;;;;;4.05;3.63;;;;;;;27.31;56.69;99831.81;10497711;28;20079;-71
2023/06/21 06:53:47;;;;;;;5.03;4.53;;;;;;;27.57;57.71;99839.84;10497541;28;20045;-71
2023/06/21 06:58:49;;;;;;;4.40;4.10;;;;;;;27.90;54.96;99849.81;10497604;28;20443;-71
2023/06/21 07:03:51;;;;;;;4.43;3.80;;;;;;;27.91;55.93;99842.53;10499301;28;20032;-71
2023/06/21 07:08:53;;;;;;;4.55;3.83;;;;;;;28.31;53.51;99849.88;10487481;28;20071;-71
2023/06/21 07:13:55;;;;;;;4.43;3.83;;;;;;;27.96;55.05;99852.84;10505540;28;20045;-70
2023/06/21 07:18:56;;;;;;;4.20;3.90;;;;;;;28.45;53.34;99861.06;10504853;28;20036;-70
2023/06/21 07:23:58;;;;;;;4.32;4.00;;;;;;;28.26;52.82;99859.50;10504825;28;20071;-70
2023/06/21 07:29:00;;;;;;;6.22;3.85;;;;;;;28.08;53.59;99860.47;10527185;28;20106;-70
2023/06/21 07:34:02;;;;;;;6.00;4.00;;;;;;;28.08;53.42;99859.63;10461808;28;20048;-69
2023/06/21 07:39:09;;;;;;;6.15;3.95;;;;;;;28.11;51.19;99870.97;10462625;28;20047;-70
2023/06/21 07:44:11;;;;;;;5.50;4.30;;;;;;;28.22;52.25;99871.66;10463119;28;20084;-69
2023/06/21 07:49:13;;;;;;;4.28;3.90;;;;;;;28.33;51.55;99888.41;10463009;28;20116;-69
2023/06/21 07:54:15;;;;;;;4.50;3.70;;;;;;;28.72;51.88;99897.75;10463552;28;20083;-69
2023/06/21 07:59:16;;;;;;;4.55;4.10;;;;;;;28.37;51.81;99897.88;10475828;28;20082;-69
2023/06/21 08:04:18;;;;;;;7.35;4.40;;;;;;;28.90;51.74;99906.53;10486917;28;20513;-69
2023/06/21 08:09:20;;;;;;;4.15;3.83;;;;;;;28.89;51.84;99908.38;10493733;28;20045;-69
2023/06/21 08:14:22;;;;;;;4.40;4.00;;;;;;;28.97;50.27;99912.16;10462893;28;20041;-69
2023/06/21 08:19:23;;;;;;;5.70;4.28;;;;;;;28.91;52.91;99909.09;10479264;28;20071;-69
2023/06/21 08:24:27;;;;;;;4.93;3.78;;;;;;;29.22;50.50;99907.53;10502641;28;20040;-69
2023/06/21 08:29:28;;;;;;;3.90;3.58;;;;;;;29.24;51.25;99922.59;10484395;28;20127;-69
2023/06/21 08:34:30;;;;;;;4.63;4.22;;;;;;;29.63;51.02;99920.00;10502128;28;20040;-69
2023/06/21 08:39:32;;;;;;;5.75;4.07;;;;;;;29.57;47.78;99923.41;10501926;28;20110;-69
2023/06/21 08:44:34;;;;;;;4.78;4.38;;;;;;;29.62;51.76;99912.91;10502632;28;20072;-69
2023/06/21 08:49:41;;;;;;;4.97;4.47;;;;;;;29.29;51.35;99914.81;10501270;28;20052;-70
2023/06/21 08:54:57;;;;;;;5.32;4.55;;;;;;;29.73;51.27;99925.19;10501652;28;20072;-70
2023/06/21 09:00:03;;;;;;;5.40;4.35;;;;;;;29.98;49.27;99935.94;10501106;28;20037;-70
2023/06/21 09:05:09;;;;;;;7.18;4.22;;;;;;;29.96;49.61;99933.41;10500488;28;20098;-70
2023/06/21 09:10:15;;;;;;;7.80;4.38;;;;;;;29.75;48.10;99925.00;10501021;28;20068;-70
2023/06/21 09:15:17;;;;;;;4.35;4.05;;;;;;;30.19;48.96;99933.47;10500467;28;20068;-70
2023/06/21 09:20:18;;;;;;;7.55;5.20;;;;;;;30.46;48.80;99931.28;10498768;28;20048;-70
2023/06/21 09:25:20;;;;;;;5.10;4.60;;;;;;;30.38;49.41;99940.34;10499735;28;20502;-70
2023/06/21 09:30:23;;;;;;;5.18;4.47;;;;;;;30.52;48.02;99936.84;10500352;28;20098;-71
2023/06/21 09:35:41;;;;;;;4.70;4.40;;;;;;;30.41;48.03;99931.81;10499632;28;20074;-70
2023/06/21 09:40:44;;;;;;;4.88;4.47;;;;;;;30.50;46.72;99930.75;10500002;28;20551;-70
2023/06/21 09:46:05;;;;;;;5.18;4.53;;;;;;;31.07;47.05;99927.59;10499161;28;20552;-70
2023/06/21 09:51:11;;;;;;;4.95;4.63;;;;;;;31.31;47.35;99926.56;10499314;28;20068;-70
2023/06/21 09:56:18;;;;;;;5.40;5.00;;;;;;;31.81;43.98;99914.09;10498945;28;20037;-70
2023/06/21 10:01:20;;;;;;;6.10;5.10;;;;;;;32.33;41.65;99917.69;10499098;28;20041;-69
2023/06/21 10:06:28;;;;;;;6.05;4.45;;;;;;;32.31;43.17;99925.19;10498198;28;20486;-69
2023/06/21 10:11:32;;;;;;;5.25;4.72;;;;;;;32.01;43.38;99933.44;10498934;28;20048;-70
2023/06/21 10:16:35;;;;;;;5.00;4.60;;;;;;;31.54;44.36;99933.78;10498898;28;20066;-70
2023/06/21 10:21:38;;;;;;;8.43;4.72;;;;;;;31.36;43.56;99931.44;10497848;28;20076;-69
2023/06/21 10:26:42;;;;;;;4.85;4.50;;;;;;;31.80;43.60;99944.19;10498049;28;20035;-70
2023/06/21 10:31:48;;;;;;;5.47;5.07;;;;;;;31.62;44.49;99948.13;10498948;28;20171;-70
2023/06/21 10:36:55;;;;;;;6.82;4.82;;;;;;;31.31;44.70;99947.44;10484378;28;20032;-70
2023/06/21 10:41:59;;;;;;;5.63;5.15;;;;;;;31.50;44.54;99956.94;10461309;28;20032;-69
2023/06/21 10:47:01;;;;;;;5.68;5.18;;;;;;;31.61;43.09;99948.28;10497870;28;20071;-70
2023/06/21 10:52:05;;;;;;;5.88;5.38;;;;;;;31.76;43.52;99954.59;10479145;28;20049;-69
2023/06/21 10:57:08;;;;;;;4.57;4.10;;;;;;;31.51;44.54;99945.88;10455664;28;20037;-69
2023/06/21 11:02:10;;;;;;;5.45;4.95;;;;;;;31.32;44.85;99958.13;10472300;28;20080;-70
2023/06/21 11:07:12;;;;;;;5.18;4.78;;;;;;;31.52;43.99;99958.44;10526565;22;20044;-72
2023/06/21 11:12:14;;;;;;;5.53;5.07;;;;;;;31.86;43.43;99963.31;10522783;28;20463;-71
2023/06/21 11:17:16;;;;;;;5.70;5.18;;;;;;;31.72;44.52;99968.75;10539769;28;20497;-70
2023/06/21 11:22:25;;;;;;;5.68;4.93;;;;;;;30.73;45.44;99973.38;10541081;28;20044;-71
2023/06/21 11:27:27;;;;;;;5.45;4.95;;;;;;;31.46;45.17;99958.31;10521984;28;20493;-70
2023/06/21 11:32:29;;;;;;;5.65;5.13;;;;;;;31.52;43.32;99976.59;10539805;28;20093;-70
2023/06/21 11:37:40;;;;;;;5.30;5.00;;;;;;;30.12;47.95;99984.84;10539881;28;20040;-70
2023/06/21 11:42:47;;;;;;;7.57;5.53;;;;;;;30.54;47.65;99991.75;10540948;28;20047;-72
2023/06/21 11:47:59;;;;;;;7.10;5.43;;;;;;;30.77;44.91;99989.09;10540202;28;20040;-71
2023/06/21 11:53:26;;;;;;;7.22;4.75;;;;;;;30.66;47.10;100005.75;10546285;28;20050;-71
2023/06/21 11:58:29;;;;;;;5.30;4.68;;;;;;;31.06;45.51;99993.78;10547465;28;20097;-71
2023/06/21 12:03:32;;;;;;;4.40;4.05;;;;;;;30.46;46.42;100010.81;10553605;28;20111;-71
2023/06/21 12:08:36;;;;;;;5.10;4.60;;;;;;;30.85;45.92;100002.59;10585313;28;20477;-70
2023/06/21 12:13:38;;;;;;;4.88;4.57;;;;;;;30.98;44.93;100006.59;10560392;28;20043;-68
2023/06/21 12:18:40;;;;;;;4.63;4.22;;;;;;;30.36;46.54;100000.16;10552631;28;20044;-68
2023/06/21 12:23:42;;;;;;;4.57;3.88;;;;;;;29.92;47.05;99983.53;10588713;28;20515;-69
2023/06/21 12:28:46;;;;;;;5.82;4.40;;;;;;;29.59;46.75;99977.41;10536204;28;20040;-68
2023/06/21 12:33:57;;;;;;;6.15;4.30;;;;;;;30.34;46.71;99976.97;10545219;28;20044;-68
2023/06/21 12:39:02;;;;;;;4.28;3.88;;;;;;;30.71;44.96;99984.34;10544851;28;20043;-69
2023/06/21 12:44:07;;;;;;;4.40;4.05;;;;;;;31.06;44.41;99988.34;10544531;28;20148;-69
2023/06/21 12:49:13;;;;;;;4.28;3.88;;;;;;;31.47;42.89;99981.75;10544513;28;20054;-69
2023/06/21 12:54:19;;;;;;;5.15;3.85;;;;;;;31.83;41.84;99977.31;10526295;28;20047;-69
2023/06/21 12:59:22;;;;;;;4.25;3.95;;;;;;;32.19;42.79;99965.66;10544067;28;20036;-69
2023/06/21 13:04:24;;;;;;;4.97;3.85;;;;;;;31.98;41.00;99968.31;10543619;28;20047;-69
2023/06/21 13:09:26;;;;;;;3.33;2.72;;;;;;;31.68;39.49;99970.16;10543275;28;20059;-68
2023/06/21 13:14:28;;;;;;;4.07;3.03;;;;;;;31.90;39.84;99972.78;10543831;28;20067;-68
2023/06/21 13:19:29;;;;;;;3.05;2.70;;;;;;;31.20;40.23;99984.00;10543134;28;20056;-68
2023/06/21 13:24:31;;;;;;;3.03;2.83;;;;;;;31.59;40.97;99963.97;10543915;28;20036;-69
2023/06/21 13:29:33;;;;;;;3.00;2.72;;;;;;;31.09;41.60;99960.84;10543044;28;20074;-69
2023/06/21 13:34:35;;;;;;;3.88;3.08;;;;;;;31.71;39.61;99965.19;10543096;28;20036;-69
2023/06/21 13:39:36;;;;;;;3.63;3.38;;;;;;;31.56;41.37;99967.88;10542623;28;20076;-68
2023/06/21 13:44:38;;;;;;;3.22;2.92;;;;;;;31.45;41.35;99956.66;10533367;28;20040;-68
2023/06/21 13:49:48;;;;;;;3.00;2.80;;;;;;;31.40;40.60;99965.34;10541981;28;20073;-68
2023/06/21 13:54:50;;;;;;;3.83;3.53;;;;;;;30.78;41.12;99960.94;10541925;28;20508;-69
2023/06/21 13:59:53;;;;;;;3.35;3.05;;;;;;;30.94;41.02;99968.09;10523674;28;20043;-68
2023/06/21 14:04:54;;;;;;;3.88;3.58;;;;;;;31.12;41.64;99963.22;10541774;28;20075;-69
2023/06/21 14:09:56;;;;;;;3.58;3.28;;;;;;;31.37;41.04;99946.69;10541637;28;20063;-68
2023/06/21 14:14:59;;;;;;;3.80;3.50;;;;;;;31.65;38.41;99950.47;10522962;28;20044;-69
2023/06/21 14:20:04;;;;;;;3.53;3.33;;;;;;;31.28;40.28;99961.41;10524019;28;20048;-69
2023/06/21 14:25:12;;;;;;;2.40;2.30;;;;;;;30.98;39.63;99971.28;10541490;28;20036;-71
2023/06/21 14:30:14;;;;;;;4.10;2.90;;;;;;;30.85;40.50;99971.91;10523973;28;20044;-71
2023/06/21 14:35:16;;;;;;;3.38;3.08;;;;;;;31.16;38.78;99972.66;10524815;28;20386;-71
2023/06/21 14:40:18;;;;;;;2.72;2.47;;;;;;;31.04;39.10;99967.88;10541775;28;20044;-70
2023/06/21 14:45:20;;;;;;;3.67;2.60;;;;;;;30.83;41.02;99973.97;10541749;28;20090;-71
2023/06/21 14:50:22;;;;;;;2.90;2.70;;;;;;;30.55;40.58;99974.47;10542127;28;20058;-71
2023/06/21 14:55:24;;;;;;;3.10;2.90;;;;;;;30.32;40.73;99969.00;10541343;28;20074;-72
2023/06/21 15:00:29;;;;;;;3.10;2.90;;;;;;;30.66;40.41;99970.50;10540921;28;20097;-70
2023/06/21 15:05:31;;;;;;;3.05;2.85;;;;;;;30.85;40.37;99982.75;10541171;28;20109;-70
2023/06/21 15:10:33;;;;;;;3.08;2.88;;;;;;;30.65;40.12;99982.38;10542852;28;20168;-70
2023/06/21 15:15:35;;;;;;;3.47;2.65;;;;;;;30.84;39.92;99989.22;10522389;28;20060;-68
2023/06/21 15:20:37;;;;;;;3.50;2.72;;;;;;;30.40;41.05;99984.38;10544483;28;20055;-69
2023/06/21 15:25:39;;;;;;;3.15;2.53;;;;;;;30.24;39.87;99987.16;10543172;28;20101;-68
2023/06/21 15:30:40;;;;;;;3.30;2.60;;;;;;;30.30;40.56;99986.47;10548283;28;20048;-69
2023/06/21 15:35:42;;;;;;;2.63;2.35;;;;;;;30.49;40.15;99986.03;10547820;28;20066;-68
2023/06/21 15:40:44;;;;;;;2.72;2.53;;;;;;;30.51;40.58;100002.97;10548088;28;20039;-69
2023/06/21 15:45:46;;;;;;;3.25;3.03;;;;;;;31.14;38.09;99992.88;10547937;28;20105;-69
2023/06/21 15:50:48;;;;;;;3.13;2.92;;;;;;;31.19;38.96;99995.88;10529685;28;20047;-69
2023/06/21 15:55:49;;;;;;;3.22;2.85;;;;;;;31.14;39.59;99988.28;10528593;28;20040;-68
2023/06/21 16:00:51;;;;;;;3.00;2.80;;;;;;;31.06;39.46;99993.78;10546987;28;20047;-70
2023/06/21 16:05:53;;;;;;;3.35;2.97;;;;;;;30.81;40.03;99995.00;10528315;28;20070;-70
2023/06/21 16:10:55;;;;;;;3.20;3.00;;;;;;;30.33;39.11;100005.97;10547850;28;20132;-68
2023/06/21 16:15:58;;;;;;;3.10;2.90;;;;;;;29.96;39.44;99997.59;10546324;28;20089;-69
2023/06/21 16:21:00;;;;;;;3.78;3.28;;;;;;;29.46;40.42;99979.75;10545991;28;20040;-69
2023/06/21 16:26:02;;;;;;;3.38;3.08;;;;;;;29.18;42.20;99982.84;10545988;28;20078;-67
2023/06/21 16:31:04;;;;;;;3.10;2.90;;;;;;;29.00;42.34;99985.72;10545587;28;20470;-68
2023/06/21 16:36:07;;;;;;;3.65;3.30;;;;;;;28.99;43.77;99988.56;10526158;28;20448;-69
2023/06/21 16:41:09;;;;;;;3.03;2.83;;;;;;;28.81;44.92;99991.41;10526742;28;20139;-67
2023/06/21 16:46:10;;;;;;;3.65;3.45;;;;;;;28.69;45.27;99998.16;10545022;28;20044;-70
2023/06/21 16:51:13;;;;;;;3.80;3.50;;;;;;;28.55;46.37;100000.50;10527545;28;20044;-69
2023/06/21 16:56:22;;;;;;;3.38;3.17;;;;;;;28.54;45.77;100000.66;10545267;28;20118;-68
2023/06/21 17:01:24;;;;;;;4.40;4.00;;;;;;;28.46;46.09;100003.34;10544264;28;20481;-68
2023/06/21 17:06:26;;;;;;;3.80;3.55;;;;;;;28.43;47.50;100015.34;10558579;22;20123;-73
2023/06/21 17:11:28;;;;;;;3.60;3.30;;;;;;;28.38;49.66;100025.81;10544224;28;20431;-74
2023/06/21 17:16:32;;;;;;;4.20;4.00;;;;;;;28.00;51.16;100038.78;10540388;28;20040;-74
2023/06/21 17:21:35;;;;;;;4.38;4.07;;;;;;;27.82;52.08;100043.41;10537372;28;20044;-74
2023/06/21 17:26:39;;;;;;;4.65;4.25;;;;;;;27.71;51.10;100043.63;10556122;28;20040;-72
2023/06/21 17:31:41;;;;;;;5.10;4.70;;;;;;;27.90;50.18;100035.34;10539871;28;20056;-74
2023/06/21 17:36:45;;;;;;;5.45;4.55;;;;;;;27.79;51.99;100024.81;10539410;28;20043;-74
2023/06/21 17:41:48;;;;;;;4.82;4.53;;;;;;;27.86;50.07;100026.72;10539929;28;20048;-73
2023/06/21 17:46:50;;;;;;;4.85;4.53;;;;;;;27.86;49.87;100017.78;10554181;28;20042;-73
2023/06/21 17:51:53;;;;;;;5.13;4.72;;;;;;;28.06;49.08;100021.91;10534041;28;20142;-74
2023/06/21 17:56:55;;;;;;;5.15;4.70;;;;;;;28.09;49.19;100035.09;10545505;28;20040;-73
2023/06/21 18:01:57;;;;;;;5.20;4.15;;;;;;;27.96;49.78;100037.41;10545477;28;20400;-74
2023/06/21 18:06:59;;;;;;;5.25;4.85;;;;;;;27.84;49.82;100038.69;10544665;28;20118;-73
2023/06/21 18:12:00;;;;;;;5.03;4.72;;;;;;;27.66;50.89;100041.41;10527623;28;20505;-73
2023/06/21 18:17:02;;;;;;;5.07;4.35;;;;;;;27.79;50.20;100052.66;10546111;28;20489;-72
2023/06/21 18:22:05;;;;;;;5.25;4.85;;;;;;;27.58;50.14;100055.72;10547330;28;20040;-74
2023/06/21 18:27:14;;;;;;;5.00;4.70;;;;;;;27.51;50.86;100049.25;10546402;28;20048;-73
2023/06/21 18:32:16;;;;;;;5.57;5.18;;;;;;;27.40;50.78;100057.56;10545733;28;20043;-73
2023/06/21 18:37:18;;;;;;;5.93;5.43;;;;;;;27.23;51.37;100067.41;10545591;28;20059;-72
2023/06/21 18:42:20;;;;;;;5.30;4.93;;;;;;;27.28;51.33;100059.69;10543981;28;20111;-72
2023/06/21 18:47:22;;;;;;;5.70;5.30;;;;;;;27.14;51.55;100066.50;10545028;28;20151;-72
2023/06/21 18:52:24;;;;;;;5.90;5.40;;;;;;;26.96;52.49;100079.09;10543220;28;20067;-73
2023/06/21 18:57:25;;;;;;;5.45;5.10;;;;;;;26.99;52.32;100084.16;10544643;28;20046;-73
2023/06/21 19:02:27;;;;;;;6.15;5.75;;;;;;;26.64;53.90;100080.41;10550620;28;20063;-74
2023/06/21 19:07:29;;;;;;;6.47;6.03;;;;;;;26.52;55.77;100089.72;10552995;28;20040;-74
2023/06/21 19:12:31;;;;;;;5.80;5.40;;;;;;;26.14;57.87;100094.25;10534718;28;20063;-74
2023/06/21 19:17:33;;;;;;;5.70;5.30;;;;;;;26.19;58.89;100109.13;10553023;28;20036;-74
2023/06/21 19:22:37;;;;;;;5.30;4.90;;;;;;;26.22;59.63;100098.06;10551819;28;20052;-74
2023/06/21 19:27:38;;;;;;;5.13;4.72;;;;;;;25.67;63.15;100114.88;10550885;28;20044;-74
2023/06/21 19:32:40;;;;;;;5.57;5.07;;;;;;;25.50;63.78;100119.16;10553163;28;20067;-74
2023/06/21 19:37:43;;;;;;;4.10;3.80;;;;;;;25.59;62.28;100123.69;10551694;28;20066;-74
2023/06/21 19:42:44;;;;;;;4.22;3.92;;;;;;;25.39;62.28;100136.28;10554733;28;20051;-74
2023/06/21 19:47:47;;;;;;;4.60;4.30;;;;;;;25.55;60.78;100143.81;10551955;28;20044;-74
2023/06/21 19:52:49;;;;;;;4.47;4.28;;;;;;;25.44;61.79;100156.53;10552657;28;20047;-74
2023/06/21 19:57:51;;;;;;;5.60;5.18;;;;;;;25.21;62.85;100158.66;10549725;28;20052;-75
2023/06/21 20:02:53;;;;;;;5.20;4.80;;;;;;;25.16;63.15;100156.38;10532074;28;20402;-75
2023/06/21 20:07:56;;;;;;;5.40;5.10;;;;;;;25.12;63.69;100152.25;10531825;28;20047;-75
2023/06/21 20:12:57;;;;;;;4.97;4.53;;;;;;;24.83;65.22;100157.53;10548893;28;20123;-74
2023/06/21 20:17:59;;;;;;;5.22;4.88;;;;;;;24.64;66.34;100174.44;10549602;28;20036;-75
2023/06/21 20:23:01;;;;;;;5.32;5.03;;;;;;;24.55;66.72;100176.13;10547761;28;20044;-74
2023/06/21 20:28:03;;;;;;;4.30;4.00;;;;;;;24.62;66.73;100174.59;10548940;28;20043;-75
2023/06/21 20:33:08;;;;;;;4.72;4.30;;;;;;;24.62;66.80;100177.28;10550712;28;20036;-74
2023/06/21 20:38:11;;;;;;;4.83;4.50;;;;;;;24.38;67.89;100185.66;10550845;28;20050;-74
2023/06/21 20:43:15;;;;;;;4.93;4.50;;;;;;;24.45;67.06;100171.69;10550715;28;20504;-75
2023/06/21 20:48:17;;;;;;;4.93;4.53;;;;;;;24.14;68.54;100187.75;10547740;28;20039;-75
2023/06/21 20:53:18;;;;;;;4.82;4.47;;;;;;;24.06;69.00;100196.47;10548188;28;20063;-75
2023/06/21 20:58:22;;;;;;;4.93;4.35;;;;;;;23.89;69.61;100192.53;10549455;28;20040;-74
2023/06/21 21:03:26;;;;;;;7.80;4.50;;;;;;;24.06;68.70;100193.78;10547974;28;20043;-74
2023/06/21 21:08:28;;;;;;;4.55;4.25;;;;;;;23.96;69.18;100192.03;10546916;28;20066;-74
2023/06/21 21:13:30;;;;;;;4.70;4.28;;;;;;;24.02;69.44;100180.75;10547964;28;20068;-74
2023/06/21 21:18:32;;;;;;;5.00;4.60;;;;;;;23.89;69.54;100186.31;10529208;28;20052;-74
2023/06/21 21:23:34;;;;;;;5.05;4.65;;;;;;;23.65;71.53;100189.25;10546208;28;20138;-74
2023/06/21 21:28:35;;;;;;;5.10;4.70;;;;;;;23.77;71.93;100185.50;10547434;28;20410;-74
2023/06/21 21:33:37;;;;;;;5.03;4.72;;;;;;;23.76;72.32;100191.00;10546713;28;20405;-74
2023/06/21 21:38:39;;;;;;;5.88;4.43;;;;;;;23.49;74.01;100192.31;10547169;28;20040;-74
2023/06/21 21:43:41;;;;;;;5.68;5.18;;;;;;;23.25;75.88;100200.56;10545648;28;20421;-74
2023/06/21 21:48:43;;;;;;;5.25;4.85;;;;;;;22.94;78.39;100199.53;10546864;28;20040;-74
2023/06/21 21:53:44;;;;;;;5.03;4.63;;;;;;;22.83;78.89;100200.34;10528856;28;20079;-74
2023/06/21 21:58:46;;;;;;;5.25;4.90;;;;;;;22.90;79.26;100216.81;10545927;28;20044;-74
2023/06/21 22:03:48;;;;;;;5.03;4.68;;;;;;;22.82;80.31;100209.34;10545705;28;20036;-74
2023/06/21 22:08:50;;;;;;;5.45;5.05;;;;;;;22.82;79.99;100217.41;10545347;28;20075;-74
2023/06/21 22:13:52;;;;;;;6.18;5.65;;;;;;;22.93;80.33;100224.59;10543718;28;20064;-75
2023/06/21 22:18:54;;;;;;;5.85;5.45;;;;;;;22.98;80.35;100208.19;10544730;28;20036;-75
2023/06/21 22:23:57;;;;;;;5.85;5.43;;;;;;;22.78;81.65;100205.22;10543970;28;20044;-75
2023/06/21 22:28:58;;;;;;;5.28;4.88;;;;;;;22.45;83.37;100203.41;10544758;28;20097;-75
2023/06/21 22:34:00;;;;;;;5.88;5.47;;;;;;;22.33;84.25;100193.63;10542466;28;20155;-74
2023/06/21 22:39:04;;;;;;;5.15;4.82;;;;;;;22.16;85.17;100206.50;10544104;28;20040;-74
2023/06/21 22:44:06;;;;;;;5.75;5.45;;;;;;;22.06;87.36;100205.50;10543705;28;20047;-75
2023/06/21 22:49:08;;;;;;;6.25;5.75;;;;;;;21.97;88.32;100200.84;10543279;28;20511;-75
2023/06/21 22:54:10;;;;;;;7.25;6.85;;;;;;;21.96;88.94;100203.63;10543771;28;20032;-75
2023/06/21 22:59:12;;;;;;;6.88;6.47;;;;;;;22.08;88.07;100216.06;10545352;28;20052;-75
2023/06/21 23:04:14;;;;;;;6.45;6.05;;;;;;;21.84;89.52;100218.81;10545440;28;20070;-75
2023/06/21 23:09:16;;;;;;;7.18;6.70;;;;;;;21.70;91.47;100217.16;10535594;22;20048;-71
2023/06/21 23:14:18;;;;;;;7.28;6.68;;;;;;;21.68;90.88;100219.09;10497383;28;20036;-71
2023/06/21 23:19:20;;;;;;;7.03;6.63;;;;;;;21.66;91.18;100218.38;10495848;28;20460;-71
2023/06/21 23:24:25;;;;;;;6.30;5.95;;;;;;;21.59;90.72;100219.78;10495803;28;20051;-70
2023/06/21 23:29:27;;;;;;;6.47;6.05;;;;;;;21.52;90.99;100224.75;10496840;28;20041;-72